CST,Max TemperatureF,Mean TemperatureF,Min TemperatureF,Max Dew PointF,MeanDew PointF,Min DewpointF,Max Humidity, Mean Humidity, Min Humidity, Max Sea Level PressureIn, Mean Sea Level PressureIn, Min Sea Level PressureIn, Max VisibilityMiles, Mean VisibilityMiles, Min VisibilityMiles, Max Wind SpeedMPH, Mean Wind SpeedMPH, Max Gust SpeedMPH,PrecipitationIn, CloudCover, Events, WindDirDegrees
2013-2-1,44,30,17,23,14,7,79,56,29,30.48,30.36,30.19,10,10,10,10,4,16,0.00,0,,123
2013-2-2,53,40,26,32,29,21,100,67,44,30.28,30.22,30.19,10,10,10,9,2,,0.00,1,,253
2013-2-3,55,44,33,32,28,23,81,52,30,30.31,30.19,29.96,10,10,10,10,5,,0.00,0,,259
2013-2-4,64,50,35,43,36,27,93,56,32,29.97,29.90,29.84,10,10,10,14,8,21,0.00,2,Thunderstorm,222
2013-2-5,64,47,30,45,35,30,100,77,32,30.08,30.01,29.93,10,10,7,12,1,17,0.00,0,,291
2013-2-6,68,50,32,41,37,32,100,65,33,30.10,30.02,29.94,10,10,10,16,5,22,0.00,1,,126
2013-2-7,55,48,41,55,49,37,100,91,71,30.14,29.96,29.88,10,8,2,14,6,21,0.00,7,Rain-Thunderstorm,54
2013-2-8,51,43,35,37,33,32,93,75,47,30.32,30.25,30.14,10,9,2,12,5,17,0.00,3,,28
2013-2-9,50,42,35,48,36,32,100,80,50,30.21,30.06,29.80,10,9,5,16,7,24,0.00,4,Rain,129
2013-2-10,60,50,35,54,40,28,100,66,31,30.07,29.78,29.63,10,10,4,23,14,29,0.00,3,Rain-Thunderstorm,221
2013-2-11,51,40,30,32,29,27,100,71,40,30.23,30.16,30.07,10,10,10,8,1,,0.00,0,,312
2013-2-12,46,38,30,39,33,28,100,83,53,30.16,30.05,29.95,10,9,5,12,2,,0.00,5,Rain,33
2013-2-13,51,42,33,39,35,30,100,80,47,30.04,29.99,29.94,10,8,2,12,4,16,0.00,4,Rain-Snow,233
2013-2-14,55,42,30,34,31,27,100,61,41,30.20,30.06,29.96,10,10,10,13,3,20,0.00,2,,306
2013-2-15,44,35,26,32,23,14,87,63,33,30.40,30.32,30.21,10,10,10,17,8,23,0.00,1,,328
2013-2-16,41,34,26,30,22,18,93,65,39,30.36,30.26,30.13,10,10,3,15,7,25,0.00,5,Snow,252
2013-2-17,68,49,30,32,27,18,75,45,26,30.12,29.96,29.80,10,10,10,20,6,28,0.00,0,,167
2013-2-18,60,46,33,54,39,28,88,62,36,30.17,29.80,29.62,10,10,5,28,20,40,0.00,3,Rain-Thunderstorm,236
2013-2-19,46,36,26,28,24,21,93,65,37,30.36,30.27,30.17,10,10,10,13,4,18,0.00,0,,323
2013-2-20,37,32,28,32,25,16,100,73,48,30.33,30.22,30.08,10,9,0,10,3,17,0.00,6,Rain-Snow,80
2013-2-21,37,34,32,37,34,28,100,97,81,30.07,29.83,29.68,10,6,1,15,8,25,0.00,8,Snow-Thunderstorm,108
2013-2-22,37,30,23,32,23,21,100,76,56,30.15,30.07,29.91,10,10,10,16,9,26,0.00,1,,276
2013-2-23,44,34,23,30,25,21,100,78,43,30.13,30.04,29.98,10,9,5,6,0,,0.00,0,,298
2013-2-24,62,45,28,36,32,28,100,68,34,30.00,29.92,29.81,10,10,10,14,3,18,0.00,0,,113
2013-2-25,42,38,35,41,35,32,100,84,66,29.89,29.67,29.47,10,9,2,20,7,29,0.00,7,Rain-Thunderstorm,53
2013-2-26,37,35,33,36,35,32,100,98,87,29.92,29.65,29.44,10,6,2,17,11,24,0.00,8,Rain-Snow,312
2013-2-27,41,37,33,34,31,28,100,83,70,30.12,30.02,29.89,10,7,2,17,8,23,0.00,6,Snow,287
2013-2-28,37,34,32,30,30,28,93,85,70,30.23,30.18,30.11,10,10,7,12,7,20,0.00,6,,309